Terminal Aerodrome Forecast
Issued by NWS

Home | Current Version | Previous Version | Text Only | Print | Product List | Glossary On
Versions: 1 2 3 4 5 6 7 8 9 10 11 12 13 14 15 16 17 18 19 20 21 22 23 24
000
FTUS45 KSLC 271120
TAFEVW
TAF
KEVW 271120Z 2712/2812 23007KT P6SM FEW090
     FM271400 23010KT P6SM SCT090
     FM271700 26018G27KT P6SM SCT090
     FM280300 28010KT P6SM FEW090
     FM280600 18006KT P6SM FEW090=

USA.gov is the U.S. government's official web portal to all federal, state and local government web resources and services.